CZ-0139 weather

CLOSED Letiště Košice u Tábora
Košice u Tábora, South Bohemian Region, Czech Republic

Public forecast

Using degrees Celsius for public forecast. Weather courtesy of forecast.io.

Closest aviation weather report (METAR) to Letiště Košice u Tábora

Closest report is Čáslav Air Base, 44.7 nm (82.8 km) NNE. Retrieved 2020/04/05 09:30 UTC (12 minutes ago):

LKCV 050930Z 07012KT CAVOK 12/M01 Q1029 NOSIG RMK BLU BLU

Closest aviation forecast (TAF) to Letiště Košice u Tábora

Closest forecast is Čáslav Air Base, 44.7 nm (82.8 km) NNE. Retrieved 2020/04/05 06:00 UTC (4 hours ago):

TAF LKCV 050500Z 0506/0606 13004KT CAVOK BECMG 0507/0510 10010KT TEMPO 0509/0520 12016KT PROB40 TEMPO 0510/0518 12016G26KT BECMG 0604/0606 14014KT